Time;durP1;ratioP1;P1;durP2;ratioP2;P2;SDS_P1;SDS_P2;PMS_P1;PMS_P2;Temp;Humidity;BMP_temperature;BMP_pressure;BME280_temperature;BME280_humidity;BME280_pressure;Samples;Min_cycle;Max_cycle;Signal;HPM_P1;HPM_P2
2022/10/10 00:00:45;;;;;;;5.40;3.50;;;9.60;99.90;;;;;;5012563;28;20449;-46
2022/10/10 00:03:11;;;;;;;7.53;3.22;;;9.60;99.90;;;;;;5012269;28;20026;-47
2022/10/10 00:05:38;;;;;;;3.92;2.80;;;9.60;99.90;;;;;;5012575;28;20018;-48
2022/10/10 00:08:04;;;;;;;6.18;4.03;;;9.60;99.90;;;;;;5010662;28;20112;-50
2022/10/10 00:10:30;;;;;;;4.88;2.70;;;9.60;99.90;;;;;;5012501;28;20034;-47
2022/10/10 00:12:56;;;;;;;6.97;3.40;;;9.60;99.90;;;;;;5010781;28;20173;-49
2022/10/10 00:15:22;;;;;;;4.65;3.60;;;9.60;99.90;;;;;;5012470;28;20030;-49
2022/10/10 00:17:47;;;;;;;3.40;3.13;;;9.60;99.90;;;;;;5012271;28;20103;-52
2022/10/10 00:20:16;;;;;;;4.07;3.35;;;9.50;99.90;;;;;;5012335;28;20512;-49
2022/10/10 00:22:42;;;;;;;4.93;3.40;;;9.50;99.90;;;;;;5011630;28;20398;-49
2022/10/10 00:25:09;;;;;;;6.93;3.78;;;9.50;99.90;;;;;;5012237;28;20386;-50
2022/10/10 00:27:35;;;;;;;5.93;4.03;;;9.40;99.90;;;;;;5012309;28;20033;-49
2022/10/10 00:30:03;;;;;;;5.78;3.78;;;9.40;99.90;;;;;;5011872;28;20099;-47
2022/10/10 00:32:28;;;;;;;6.55;4.13;;;9.50;99.90;;;;;;5011772;28;20378;-47
2022/10/10 00:34:54;;;;;;;4.40;3.65;;;9.40;99.90;;;;;;5011656;28;20084;-52
2022/10/10 00:37:19;;;;;;;9.32;4.45;;;9.40;99.90;;;;;;5012405;28;20077;-50
2022/10/10 00:39:45;;;;;;;9.35;4.00;;;9.40;99.90;;;;;;5011770;28;20034;-51
2022/10/10 00:42:15;;;;;;;5.85;3.80;;;9.30;99.90;;;;;;5011662;28;20021;-50
2022/10/10 00:44:42;;;;;;;3.45;3.15;;;9.30;99.90;;;;;;5011878;28;20327;-48
2022/10/10 00:47:08;;;;;;;7.68;4.78;;;9.30;99.90;;;;;;5011268;28;20589;-47
2022/10/10 00:49:38;;;;;;;6.07;3.83;;;9.20;99.90;;;;;;5011342;28;20108;-46
2022/10/10 00:52:05;;;;;;;4.97;4.10;;;9.20;99.90;;;;;;5011763;28;20405;-49
2022/10/10 00:54:32;;;;;;;10.63;4.72;;;9.10;99.90;;;;;;5011855;28;20030;-47
2022/10/10 00:57:06;;;;;;;6.60;3.50;;;9.10;99.90;;;;;;5012296;28;20136;-49
2022/10/10 00:59:35;;;;;;;7.00;4.23;;;9.00;99.90;;;;;;5011516;28;20060;-48
2022/10/10 01:02:00;;;;;;;5.90;3.92;;;9.10;99.90;;;;;;5009885;28;20080;-50
2022/10/10 01:04:39;;;;;;;9.93;3.92;;;9.10;99.90;;;;;;5010458;28;20022;-48
2022/10/10 01:07:09;;;;;;;5.70;3.80;;;9.10;99.90;;;;;;5011775;28;20041;-42
2022/10/10 01:09:37;;;;;;;11.07;3.97;;;9.10;99.90;;;;;;5011519;28;20508;-48
2022/10/10 01:12:14;;;;;;;5.95;3.80;;;9.10;99.90;;;;;;5010996;28;20064;-49
2022/10/10 01:15:03;;;;;;;5.95;4.00;;;9.10;99.90;;;;;;5011664;28;20030;-54
2022/10/10 01:17:44;;;;;;;4.65;4.18;;;9.10;99.90;;;;;;5010395;28;20022;-45
2022/10/10 01:20:20;;;;;;;5.10;3.65;;;9.10;99.90;;;;;;5011253;28;20018;-50
2022/10/10 01:23:07;;;;;;;3.97;3.33;;;9.00;99.90;;;;;;5011326;28;20032;-51
2022/10/10 01:25:48;;;;;;;6.15;3.63;;;9.00;99.90;;;;;;5011586;28;20490;-42
2022/10/10 01:28:39;;;;;;;77.53;52.95;;;9.00;99.90;;;;;;5011609;28;20104;-47
2022/10/10 01:31:07;;;;;;;19.33;14.40;;;9.00;99.90;;;;;;5011374;28;20058;-46
2022/10/10 01:33:47;;;;;;;8.23;4.85;;;9.00;99.90;;;;;;5011211;28;20030;-51
2022/10/10 01:36:25;;;;;;;8.32;4.40;;;8.90;99.90;;;;;;5011838;28;20030;-52
2022/10/10 01:39:05;;;;;;;5.85;4.22;;;8.80;99.90;;;;;;5015133;28;20113;-42
2022/10/10 01:41:42;;;;;;;8.50;3.75;;;8.80;99.90;;;;;;5015188;28;20130;-49
2022/10/10 01:44:07;;;;;;;10.77;3.78;;;8.70;99.90;;;;;;5014829;28;20149;-50
2022/10/10 01:46:33;;;;;;;9.45;4.32;;;8.60;99.90;;;;;;5014649;28;20109;-47
2022/10/10 01:49:00;;;;;;;9.25;4.55;;;8.50;99.90;;;;;;5014999;28;20030;-49
2022/10/10 01:51:52;;;;;;;8.55;4.30;;;8.50;99.90;;;;;;5014964;28;20375;-48
2022/10/10 01:54:26;;;;;;;7.55;4.25;;;8.50;99.90;;;;;;5015013;28;20121;-47
2022/10/10 01:57:20;;;;;;;4.45;3.60;;;8.50;99.90;;;;;;5015011;28;20026;-44
2022/10/10 02:00:04;;;;;;;8.57;4.25;;;8.50;99.90;;;;;;5014715;28;20018;-51
2022/10/10 02:02:56;;;;;;;4.85;3.95;;;8.60;99.90;;;;;;5014519;28;20072;-50
2022/10/10 02:05:43;;;;;;;6.28;4.95;;;8.60;99.90;;;;;;5014823;28;20031;-48
2022/10/10 02:08:16;;;;;;;5.82;4.22;;;8.60;99.90;;;;;;5014557;28;20030;-53
2022/10/10 02:10:53;;;;;;;5.25;4.25;;;8.70;99.90;;;;;;5014728;28;20030;-43
2022/10/10 02:13:22;;;;;;;10.45;4.20;;;8.70;99.90;;;;;;5014343;28;20172;-48
2022/10/10 02:15:52;;;;;;;7.10;4.45;;;8.60;99.90;;;;;;5014671;28;20032;-49
2022/10/10 02:18:24;;;;;;;9.07;4.63;;;8.60;99.90;;;;;;5014300;28;20112;-47
2022/10/10 02:20:51;;;;;;;7.40;4.20;;;8.50;99.90;;;;;;5014508;28;20025;-48
2022/10/10 02:23:19;;;;;;;5.35;3.88;;;8.50;99.90;;;;;;5014134;28;20018;-51
2022/10/10 02:25:51;;;;;;;14.48;4.68;;;8.50;99.90;;;;;;5014429;28;20022;-47
2022/10/10 02:28:24;;;;;;;6.82;3.85;;;8.50;99.90;;;;;;5014516;28;20453;-48
2022/10/10 02:30:54;;;;;;;4.65;4.03;;;8.50;99.90;;;;;;5035505;22;20416;-47
2022/10/10 02:33:26;;;;;;;5.30;4.28;;;8.50;99.90;;;;;;5013421;28;20105;-49
2022/10/10 02:35:53;;;;;;;9.00;3.72;;;8.50;99.90;;;;;;5014204;28;20022;-48
2022/10/10 02:38:19;;;;;;;7.32;3.95;;;8.50;99.90;;;;;;5013971;28;20478;-47
2022/10/10 02:40:47;;;;;;;6.07;4.43;;;8.50;99.90;;;;;;5014077;28;20100;-46
2022/10/10 02:43:14;;;;;;;6.30;4.05;;;8.50;99.90;;;;;;5013769;28;20444;-47
2022/10/10 02:45:40;;;;;;;4.40;4.00;;;8.40;99.90;;;;;;5013455;28;20034;-47
2022/10/10 02:48:06;;;;;;;5.47;4.13;;;8.40;99.90;;;;;;5012992;28;20490;-49
2022/10/10 02:50:32;;;;;;;4.35;3.78;;;8.40;99.90;;;;;;5013880;28;20104;-45
2022/10/10 02:52:59;;;;;;;6.90;4.32;;;8.30;99.90;;;;;;5013731;28;20029;-46
2022/10/10 02:55:25;;;;;;;7.28;4.47;;;8.40;99.90;;;;;;5012605;28;20030;-45
2022/10/10 02:57:50;;;;;;;5.40;4.18;;;8.30;99.90;;;;;;5013723;28;20036;-47
2022/10/10 03:00:16;;;;;;;5.25;3.92;;;8.40;99.90;;;;;;5012275;28;20561;-47
2022/10/10 03:02:42;;;;;;;10.90;4.85;;;8.40;99.90;;;;;;5012252;28;20022;-44
2022/10/10 03:05:08;;;;;;;7.22;3.15;;;8.40;99.90;;;;;;5013700;28;20097;-46
2022/10/10 03:07:35;;;;;;;7.88;4.07;;;8.40;99.90;;;;;;5013736;28;20026;-47
2022/10/10 03:10:00;;;;;;;6.63;3.90;;;8.40;99.90;;;;;;5013824;28;20026;-47
2022/10/10 03:12:26;;;;;;;5.80;3.60;;;8.40;99.90;;;;;;5011973;28;20022;-45
2022/10/10 03:14:51;;;;;;;5.45;3.75;;;8.40;99.90;;;;;;5012290;28;20026;-45
2022/10/10 03:17:17;;;;;;;7.50;3.97;;;8.30;99.90;;;;;;5013403;28;20350;-46
2022/10/10 03:19:42;;;;;;;7.13;3.40;;;8.30;99.90;;;;;;5013377;28;20026;-46
2022/10/10 03:22:08;;;;;;;10.57;3.80;;;8.20;99.90;;;;;;5013377;28;20053;-48
2022/10/10 03:24:33;;;;;;;6.47;4.03;;;8.10;99.90;;;;;;5013355;28;20113;-45
2022/10/10 03:26:59;;;;;;;10.32;3.80;;;8.00;99.90;;;;;;5012551;28;20117;-45
2022/10/10 03:29:25;;;;;;;5.85;3.70;;;8.00;99.90;;;;;;5013007;28;20030;-48
2022/10/10 03:31:50;;;;;;;6.57;3.92;;;8.00;99.90;;;;;;5011801;28;20028;-49
2022/10/10 03:34:16;;;;;;;7.75;3.80;;;8.00;99.90;;;;;;5012914;28;20040;-46
2022/10/10 03:36:42;;;;;;;6.03;3.47;;;7.90;99.90;;;;;;5012998;28;20026;-48
2022/10/10 03:39:08;;;;;;;4.65;3.88;;;7.90;99.90;;;;;;5012822;28;20087;-47
2022/10/10 03:41:34;;;;;;;7.68;4.45;;;7.80;99.90;;;;;;5012955;28;20077;-47
2022/10/10 03:43:59;;;;;;;7.28;4.53;;;7.80;99.90;;;;;;5011423;28;20120;-46
2022/10/10 03:46:25;;;;;;;7.57;4.10;;;7.80;99.90;;;;;;5012667;28;20053;-48
2022/10/10 03:48:50;;;;;;;5.28;4.68;;;7.70;99.90;;;;;;5013040;28;20120;-48
2022/10/10 03:51:16;;;;;;;7.28;3.92;;;7.70;99.90;;;;;;5011702;28;20022;-47
2022/10/10 03:53:42;;;;;;;4.55;3.63;;;7.70;99.90;;;;;;5012628;28;20022;-47
2022/10/10 03:56:07;;;;;;;4.82;4.32;;;7.70;99.90;;;;;;5013035;28;20084;-47
2022/10/10 03:58:33;;;;;;;6.25;3.75;;;7.70;99.90;;;;;;5012845;28;20032;-47
2022/10/10 04:01:00;;;;;;;5.15;3.72;;;7.70;99.90;;;;;;5012502;28;20018;-46
2022/10/10 04:03:27;;;;;;;6.65;4.07;;;7.70;99.90;;;;;;5012295;28;20393;-48
2022/10/10 04:05:53;;;;;;;4.82;4.18;;;7.80;99.90;;;;;;5012583;28;20030;-48
2022/10/10 04:08:19;;;;;;;6.65;3.80;;;7.70;99.90;;;;;;5012431;28;20061;-48
2022/10/10 04:10:49;;;;;;;9.55;3.70;;;7.80;99.90;;;;;;5012305;28;20041;-48
2022/10/10 04:13:15;;;;;;;6.32;3.88;;;7.70;99.90;;;;;;5012270;28;20026;-49
2022/10/10 04:15:41;;;;;;;6.38;4.07;;;7.70;99.90;;;;;;5011229;28;20120;-49
2022/10/10 04:18:06;;;;;;;6.97;3.60;;;7.70;99.90;;;;;;5012666;28;20110;-50
2022/10/10 04:20:32;;;;;;;4.60;3.90;;;7.70;99.90;;;;;;5012137;28;20446;-47
2022/10/10 04:22:58;;;;;;;4.80;3.85;;;7.70;99.90;;;;;;5011948;28;20100;-45
2022/10/10 04:25:23;;;;;;;3.90;3.50;;;7.70;99.90;;;;;;5012294;28;20026;-50
2022/10/10 04:27:49;;;;;;;5.07;3.90;;;7.70;99.90;;;;;;5012209;28;20036;-48
2022/10/10 04:30:15;;;;;;;7.18;3.63;;;7.60;99.90;;;;;;5011879;28;20038;-47
2022/10/10 04:32:40;;;;;;;7.68;4.60;;;7.60;99.90;;;;;;5011792;28;20030;-46
2022/10/10 04:35:06;;;;;;;4.63;3.75;;;7.50;99.90;;;;;;5012263;28;20034;-46
2022/10/10 04:37:33;;;;;;;8.88;4.68;;;7.50;99.90;;;;;;5011991;28;20036;-46
2022/10/10 04:39:58;;;;;;;5.45;4.25;;;7.50;99.90;;;;;;5012269;28;20136;-48
2022/10/10 04:42:24;;;;;;;7.93;4.72;;;7.50;99.90;;;;;;5011091;28;20109;-49
2022/10/10 04:44:49;;;;;;;6.53;3.90;;;7.50;99.90;;;;;;5012114;28;20493;-48
2022/10/10 04:47:15;;;;;;;4.80;3.97;;;7.50;99.90;;;;;;5011557;28;20033;-47
2022/10/10 04:49:41;;;;;;;4.43;3.80;;;7.50;99.90;;;;;;5011788;28;20030;-45
2022/10/10 04:52:08;;;;;;;5.97;4.13;;;7.50;99.90;;;;;;5011665;28;20030;-50
2022/10/10 04:54:34;;;;;;;7.22;4.93;;;7.50;99.90;;;;;;5011953;28;20549;-46
2022/10/10 04:56:59;;;;;;;8.48;5.15;;;7.50;99.90;;;;;;5011919;28;20108;-47
2022/10/10 04:59:25;;;;;;;5.90;3.92;;;7.50;99.90;;;;;;5011603;28;20028;-47
2022/10/10 05:01:50;;;;;;;6.82;4.88;;;7.50;99.90;;;;;;5011668;28;20393;-46
2022/10/10 05:04:16;;;;;;;9.43;4.30;;;7.50;99.90;;;;;;5011667;28;20026;-47
2022/10/10 05:06:42;;;;;;;5.90;4.03;;;7.50;99.90;;;;;;5011908;28;20034;-44
2022/10/10 05:09:07;;;;;;;8.27;4.15;;;7.50;99.90;;;;;;5011656;28;20396;-49
2022/10/10 05:11:33;;;;;;;5.75;4.10;;;7.50;99.90;;;;;;5013584;28;20029;-43
2022/10/10 05:13:58;;;;;;;8.52;4.55;;;7.50;99.90;;;;;;5015468;28;20029;-46
2022/10/10 05:16:24;;;;;;;6.80;4.72;;;7.50;99.90;;;;;;5015676;28;20547;-48
2022/10/10 05:18:50;;;;;;;6.85;4.03;;;7.50;99.90;;;;;;5015516;28;20108;-49
2022/10/10 05:21:16;;;;;;;4.85;4.18;;;7.50;99.90;;;;;;5015541;28;20482;-49
2022/10/10 05:23:41;;;;;;;8.30;4.80;;;7.50;99.90;;;;;;5015313;28;20026;-46
2022/10/10 05:26:07;;;;;;;7.88;4.38;;;7.50;99.90;;;;;;5015635;28;20049;-46
2022/10/10 05:28:35;;;;;;;5.68;4.55;;;7.40;99.90;;;;;;5014070;28;20379;-46
2022/10/10 05:31:01;;;;;;;5.25;4.13;;;7.30;99.90;;;;;;5015412;28;20688;-46
2022/10/10 05:33:26;;;;;;;8.43;4.72;;;7.30;99.90;;;;;;5015151;28;20045;-50
2022/10/10 05:35:52;;;;;;;4.85;4.32;;;7.30;99.90;;;;;;5015356;28;20034;-50
2022/10/10 05:38:18;;;;;;;5.90;4.25;;;7.20;99.90;;;;;;5015203;28;20432;-46
2022/10/10 05:40:43;;;;;;;6.65;4.13;;;7.20;99.90;;;;;;5015035;28;20080;-48
2022/10/10 05:43:09;;;;;;;4.15;3.78;;;7.20;99.90;;;;;;5013604;28;20014;-49
2022/10/10 05:45:35;;;;;;;7.78;4.35;;;7.20;99.90;;;;;;5014533;28;20026;-47
2022/10/10 05:48:01;;;;;;;7.22;4.60;;;7.10;99.90;;;;;;5015136;28;20034;-46
2022/10/10 05:50:37;;;;;;;10.75;4.65;;;7.20;99.90;;;;;;5015133;28;20030;-45
2022/10/10 05:53:03;;;;;;;5.28;4.20;;;7.20;99.90;;;;;;5014818;28;20026;-46
2022/10/10 05:55:28;;;;;;;6.85;4.65;;;7.20;99.90;;;;;;5013467;28;20397;-48
2022/10/10 05:57:54;;;;;;;6.50;4.57;;;7.30;99.90;;;;;;5013473;28;20025;-46
2022/10/10 06:00:19;;;;;;;5.85;5.07;;;7.30;99.90;;;;;;5014861;28;20033;-45
2022/10/10 06:02:45;;;;;;;5.80;4.80;;;7.40;99.90;;;;;;5014626;28;20026;-45
2022/10/10 06:05:10;;;;;;;8.05;5.82;;;7.40;99.90;;;;;;5013640;28;20366;-46
2022/10/10 06:07:36;;;;;;;6.82;5.28;;;7.40;99.90;;;;;;5013476;28;20545;-45
2022/10/10 06:10:02;;;;;;;7.20;4.97;;;7.40;99.90;;;;;;5014734;28;20030;-49
2022/10/10 06:12:28;;;;;;;8.40;5.10;;;7.40;99.90;;;;;;5013108;28;20022;-45
2022/10/10 06:14:53;;;;;;;6.50;4.63;;;7.50;99.90;;;;;;5014687;28;20026;-45
2022/10/10 06:17:19;;;;;;;7.53;4.93;;;7.50;99.90;;;;;;5014632;28;20045;-47
2022/10/10 06:19:45;;;;;;;10.68;5.68;;;7.50;99.90;;;;;;5014284;28;20088;-50
2022/10/10 06:22:10;;;;;;;6.15;4.55;;;7.50;99.90;;;;;;5013953;28;20270;-47
2022/10/10 06:24:36;;;;;;;16.92;6.22;;;7.50;99.90;;;;;;5014349;28;20033;-47
2022/10/10 06:27:01;;;;;;;7.32;4.68;;;7.60;99.90;;;;;;5014187;28;20030;-46
2022/10/10 06:29:27;;;;;;;5.88;4.57;;;7.70;99.90;;;;;;5014079;28;20675;-49
2022/10/10 06:31:52;;;;;;;6.80;4.18;;;7.80;99.90;;;;;;5014264;28;20065;-46
2022/10/10 06:34:18;;;;;;;6.60;4.15;;;7.90;99.90;;;;;;5012885;28;20482;-47
2022/10/10 06:36:44;;;;;;;14.38;4.95;;;8.00;99.90;;;;;;5014154;28;20076;-45
2022/10/10 06:39:09;;;;;;;5.72;4.90;;;8.10;99.90;;;;;;5013809;28;20073;-49
2022/10/10 06:41:35;;;;;;;6.53;4.45;;;8.10;99.90;;;;;;5014118;28;20266;-45
2022/10/10 06:44:00;;;;;;;9.30;4.88;;;8.20;99.90;;;;;;5014012;28;20050;-47
2022/10/10 06:46:26;;;;;;;10.48;4.70;;;8.50;99.90;;;;;;5013659;28;20028;-49
2022/10/10 06:48:51;;;;;;;7.30;4.72;;;9.00;99.90;;;;;;5014304;28;20216;-47
2022/10/10 06:51:17;;;;;;;8.27;4.32;;;9.20;99.90;;;;;;5012577;28;20030;-47
2022/10/10 06:53:44;;;;;;;6.88;4.80;;;9.30;99.90;;;;;;5013702;28;20026;-45
2022/10/10 06:56:16;;;;;;;9.57;4.60;;;9.40;99.90;;;;;;5013855;28;20034;-48
2022/10/10 06:58:42;;;;;;;8.27;4.95;;;9.60;99.90;;;;;;5013644;28;20033;-45
2022/10/10 07:01:09;;;;;;;6.82;4.88;;;10.00;99.90;;;;;;5013713;28;20030;-47
2022/10/10 07:03:34;;;;;;;8.27;5.07;;;10.60;99.90;;;;;;5013436;28;20045;-46
2022/10/10 07:06:01;;;;;;;11.40;4.93;;;11.00;99.90;;;;;;5013610;28;20540;-45
2022/10/10 07:08:27;;;;;;;8.75;3.72;;;11.50;99.90;;;;;;5013642;28;20099;-49
2022/10/10 07:10:53;;;;;;;9.45;5.25;;;11.80;99.90;;;;;;5013381;28;20482;-46
2022/10/10 07:13:18;;;;;;;6.10;4.25;;;12.10;99.90;;;;;;5013396;28;20026;-46
2022/10/10 07:15:44;;;;;;;7.88;4.80;;;12.00;99.90;;;;;;5013430;28;20026;-48
2022/10/10 07:18:10;;;;;;;5.38;4.00;;;11.90;99.90;;;;;;5013337;28;20117;-51
2022/10/10 07:20:36;;;;;;;10.85;5.13;;;11.70;99.90;;;;;;5013281;28;20022;-44
2022/10/10 07:23:02;;;;;;;9.63;4.40;;;11.50;99.90;;;;;;5013061;28;20115;-46
2022/10/10 07:25:27;;;;;;;10.25;4.78;;;11.20;99.90;;;;;;5013439;28;20282;-49
2022/10/10 07:27:53;;;;;;;7.78;4.65;;;11.10;99.90;;;;;;5013315;28;20026;-45
2022/10/10 07:30:19;;;;;;;7.90;4.80;;;11.00;99.90;;;;;;5013165;28;20036;-45
2022/10/10 07:32:44;;;;;;;5.80;4.18;;;10.80;99.90;;;;;;5012785;28;20032;-46
2022/10/10 07:35:11;;;;;;;5.70;4.28;;;10.80;99.90;;;;;;5011955;28;20030;-46
2022/10/10 07:37:37;;;;;;;8.48;5.38;;;10.70;99.90;;;;;;5011476;28;20022;-50
2022/10/10 07:40:03;;;;;;;6.43;5.22;;;10.80;99.90;;;;;;5012552;28;20033;-45
2022/10/10 07:42:29;;;;;;;7.43;4.88;;;10.90;99.90;;;;;;5012691;28;20474;-48
2022/10/10 07:44:54;;;;;;;7.68;5.50;;;10.90;99.90;;;;;;5013110;28;20068;-48
2022/10/10 07:47:21;;;;;;;10.48;6.68;;;10.80;99.90;;;;;;5011560;28;20517;-48
2022/10/10 07:49:47;;;;;;;6.00;5.15;;;10.90;99.90;;;;;;5012736;28;20034;-50
2022/10/10 07:52:12;;;;;;;9.98;5.00;;;10.90;99.90;;;;;;5012713;28;20101;-46
2022/10/10 07:54:38;;;;;;;5.88;4.97;;;10.90;99.90;;;;;;5012747;28;20032;-46
2022/10/10 07:57:04;;;;;;;9.77;5.43;;;10.90;99.90;;;;;;5012553;28;20113;-47
2022/10/10 07:59:29;;;;;;;8.57;5.40;;;10.90;99.90;;;;;;5012617;28;20080;-52
2022/10/10 08:01:55;;;;;;;9.45;5.30;;;10.80;99.90;;;;;;5012682;28;20393;-50
2022/10/10 08:04:20;;;;;;;9.88;5.10;;;10.70;99.90;;;;;;5011290;28;20026;-49
2022/10/10 08:06:47;;;;;;;11.00;6.43;;;10.70;99.90;;;;;;5012626;28;20018;-47
2022/10/10 08:09:13;;;;;;;10.98;5.13;;;10.80;99.90;;;;;;5012442;28;20022;-46
2022/10/10 08:11:38;;;;;;;14.32;5.07;;;10.90;99.90;;;;;;5012403;28;20036;-49
2022/10/10 08:14:04;;;;;;;5.50;4.40;;;11.00;99.90;;;;;;5011832;28;20109;-49
2022/10/10 08:16:29;;;;;;;8.60;4.85;;;11.20;99.90;;;;;;5012384;28;20041;-46
2022/10/10 08:18:56;;;;;;;10.23;5.97;;;11.30;99.90;;;;;;5012210;28;20026;-46
2022/10/10 08:21:21;;;;;;;11.23;5.55;;;11.60;99.90;;;;;;5012297;28;20397;-48
2022/10/10 08:23:47;;;;;;;10.27;5.45;;;11.60;99.90;;;;;;5010592;28;20049;-48
2022/10/10 08:26:14;;;;;;;9.25;6.00;;;11.70;99.90;;;;;;5012076;28;20539;-49
2022/10/10 08:28:40;;;;;;;8.63;6.35;;;11.60;99.90;;;;;;5012632;28;20087;-45
2022/10/10 08:31:08;;;;;;;10.10;5.50;;;11.50;99.90;;;;;;5035114;22;20049;-48
2022/10/10 08:33:35;;;;;;;10.50;5.60;;;11.50;99.90;;;;;;5011641;28;20107;-48
2022/10/10 08:36:09;;;;;;;9.73;6.10;;;11.60;99.90;;;;;;5012177;28;20037;-47
2022/10/10 08:38:35;;;;;;;11.52;5.43;;;11.80;99.90;;;;;;5011691;28;20060;-46
2022/10/10 08:41:12;;;;;;;11.15;6.32;;;12.00;99.90;;;;;;5011895;28;20022;-47
2022/10/10 08:43:46;;;;;;;8.23;5.20;;;12.20;99.90;;;;;;5011828;28;20057;-48
2022/10/10 08:46:24;;;;;;;7.10;5.63;;;12.50;99.90;;;;;;5011459;28;20108;-48
2022/10/10 08:48:51;;;;;;;23.88;5.95;;;12.70;99.90;;;;;;5011844;28;20030;-47
2022/10/10 08:51:27;;;;;;;9.95;5.25;;;12.80;99.90;;;;;;5011728;28;20021;-49
2022/10/10 08:53:56;;;;;;;6.65;5.93;;;12.70;99.90;;;;;;5011526;28;20030;-49
2022/10/10 08:56:30;;;;;;;10.85;5.20;;;12.60;99.90;;;;;;5011812;28;20028;-50
2022/10/10 08:59:13;;;;;;;11.50;5.90;;;12.60;99.90;;;;;;5010357;28;20026;-46
2022/10/10 09:01:39;;;;;;;11.65;6.30;;;12.50;99.90;;;;;;5010342;28;20029;-44
2022/10/10 09:04:11;;;;;;;8.75;5.68;;;12.50;99.90;;;;;;5011714;28;20390;-51
2022/10/10 09:07:07;;;;;;;9.20;7.32;;;12.50;99.90;;;;;;5011849;28;20026;-49
2022/10/10 09:09:57;;;;;;;7.90;5.75;;;12.90;99.90;;;;;;5011664;28;20050;-50
2022/10/10 09:13:01;;;;;;;9.57;5.85;;;14.20;99.90;;;;;;5011461;28;20030;-49
2022/10/10 09:15:42;;;;;;;10.75;4.93;;;15.80;99.90;;;;;;5011774;28;20045;-51
2022/10/10 09:18:13;;;;;;;8.05;4.97;;;17.20;99.90;;;;;;5011436;28;20067;-50
2022/10/10 09:20:51;;;;;;;6.28;5.35;;;18.50;99.90;;;;;;5011532;28;20022;-40
2022/10/10 09:23:37;;;;;;;6.45;5.38;;;19.20;99.70;;;;;;5009952;28;20572;-46
2022/10/10 09:26:15;;;;;;;6.68;4.50;;;19.40;99.00;;;;;;5011498;28;20038;-49
2022/10/10 09:28:51;;;;;;;8.88;5.30;;;19.70;99.30;;;;;;5011540;28;20032;-45
2022/10/10 09:31:22;;;;;;;10.13;5.05;;;20.00;99.00;;;;;;5011637;28;20026;-46
2022/10/10 09:34:14;;;;;;;9.27;5.70;;;20.20;98.70;;;;;;5011777;28;20033;-46
2022/10/10 09:36:40;;;;;;;6.22;5.25;;;19.80;98.70;;;;;;4992654;28;20041;-47
2022/10/10 09:39:43;;;;;;;15.23;5.90;;;19.40;99.00;;;;;;5011368;28;20398;-42
2022/10/10 09:42:14;;;;;;;9.35;5.82;;;18.50;99.90;;;;;;5009149;28;20048;-41
2022/10/10 09:44:40;;;;;;;13.93;6.30;;;18.00;99.90;;;;;;5011862;28;20104;-46
2022/10/10 09:47:06;;;;;;;8.75;6.32;;;17.90;99.90;;;;;;5011020;28;20022;-46
2022/10/10 09:49:33;;;;;;;7.18;5.70;;;17.60;99.90;;;;;;5011477;28;20025;-42
2022/10/10 09:52:09;;;;;;;10.82;6.65;;;17.30;99.90;;;;;;5011108;28;20049;-50
2022/10/10 09:54:34;;;;;;;14.27;6.28;;;16.80;99.90;;;;;;5011467;28;20022;-47
2022/10/10 09:57:02;;;;;;;12.57;6.95;;;16.10;99.90;;;;;;5011412;28;20026;-49
2022/10/10 09:59:43;;;;;;;8.73;6.55;;;15.80;99.90;;;;;;5014826;28;20030;-46
2022/10/10 10:02:20;;;;;;;9.60;5.75;;;15.50;99.90;;;;;;5014703;28;20028;-47
2022/10/10 10:04:47;;;;;;;20.27;7.22;;;15.30;99.90;;;;;;5014740;28;20026;-47
2022/10/10 10:07:32;;;;;;;9.73;6.38;;;15.10;99.90;;;;;;5015068;28;20022;-48
2022/10/10 10:10:01;;;;;;;10.07;6.60;;;15.10;99.90;;;;;;5014447;28;20021;-51
2022/10/10 10:12:38;;;;;;;9.70;6.43;;;15.00;99.90;;;;;;5014332;28;20084;-48
2022/10/10 10:15:15;;;;;;;11.05;6.25;;;15.10;99.90;;;;;;5014705;28;20438;-50
2022/10/10 10:17:41;;;;;;;7.93;6.38;;;15.40;99.90;;;;;;5014451;28;20033;-50
2022/10/10 10:20:30;;;;;;;7.25;5.80;;;15.80;99.90;;;;;;5014340;28;20022;-51
2022/10/10 10:22:55;;;;;;;9.43;5.57;;;16.20;99.90;;;;;;5014383;28;20029;-47
2022/10/10 10:25:27;;;;;;;9.57;5.97;;;16.50;99.90;;;;;;5014379;28;20025;-47
2022/10/10 10:28:10;;;;;;;20.27;8.15;;;16.70;99.90;;;;;;5014359;28;20026;-48
2022/10/10 10:30:41;;;;;;;13.15;7.78;;;16.90;99.90;;;;;;5014178;28;20084;-46
2022/10/10 10:33:17;;;;;;;9.15;7.10;;;16.90;99.90;;;;;;5013885;28;20030;-43
2022/10/10 10:35:54;;;;;;;12.23;8.43;;;16.80;99.90;;;;;;5014347;28;20030;-42
2022/10/10 10:38:54;;;;;;;10.95;6.95;;;16.70;99.90;;;;;;5014026;28;20033;-48
2022/10/10 10:41:43;;;;;;;11.27;7.65;;;16.60;99.90;;;;;;5013858;28;20389;-45
2022/10/10 10:44:37;;;;;;;10.65;7.10;;;16.60;99.90;;;;;;5007907;28;20075;-49
2022/10/10 10:47:32;;;;;;;9.90;6.50;;;16.50;99.90;;;;;;5013587;28;20018;-47
2022/10/10 10:50:28;;;;;;;8.30;6.63;;;16.50;99.90;;;;;;5013926;28;20018;-48
2022/10/10 10:53:07;;;;;;;10.87;6.03;;;16.60;99.90;;;;;;5013735;28;20033;-48
2022/10/10 10:55:59;;;;;;;10.43;6.38;;;16.60;99.90;;;;;;5013785;28;20303;-47
2022/10/10 10:58:40;;;;;;;13.85;6.75;;;16.70;99.90;;;;;;5013768;28;20064;-46
2022/10/10 11:01:27;;;;;;;9.35;7.03;;;16.60;99.90;;;;;;5013872;28;20559;-44
2022/10/10 11:04:03;;;;;;;18.00;7.25;;;16.60;99.90;;;;;;5013302;28;20034;-41
2022/10/10 11:06:54;;;;;;;13.68;6.72;;;16.60;99.90;;;;;;5013588;28;20025;-49
2022/10/10 11:09:26;;;;;;;8.07;5.78;;;16.60;99.90;;;;;;5012528;28;20400;-48
2022/10/10 11:12:40;;;;;;;9.80;7.03;;;16.60;99.90;;;;;;5013331;28;20121;-43
2022/10/10 11:15:45;;;;;;;10.38;7.25;;;16.60;99.90;;;;;;5004462;28;20441;-47
2022/10/10 11:18:17;;;;;;;12.98;6.13;;;16.60;99.90;;;;;;5013301;28;20022;-46
2022/10/10 11:20:54;;;;;;;13.77;6.45;;;16.70;99.90;;;;;;5013405;28;20096;-47
2022/10/10 11:23:29;;;;;;;10.43;6.40;;;16.70;99.90;;;;;;5013021;28;20061;-48
2022/10/10 11:26:14;;;;;;;;;;;16.70;99.90;;;;;;5013692;28;20026;-45
2022/10/10 11:28:47;;;;;;;10.30;6.65;;;16.70;99.90;;;;;;5013152;28;19928;-44
2022/10/10 11:31:21;;;;;;;11.20;6.28;;;16.80;99.90;;;;;;5013253;28;20040;-47
2022/10/10 11:33:53;;;;;;;18.10;6.35;;;16.80;99.90;;;;;;5011581;28;20026;-51
2022/10/10 11:36:21;;;;;;;6.65;5.55;;;16.70;99.90;;;;;;5013003;28;20113;-45
2022/10/10 11:39:13;;;;;;;8.32;5.43;;;16.80;99.90;;;;;;5012742;28;20018;-47
2022/10/10 11:41:44;;;;;;;19.33;6.70;;;16.80;99.90;;;;;;5012719;28;20049;-48
2022/10/10 11:44:13;;;;;;;6.82;5.45;;;17.00;99.90;;;;;;5011426;28;20113;-45
2022/10/10 11:46:42;;;;;;;13.57;7.07;;;17.00;99.90;;;;;;5012616;28;20022;-45
2022/10/10 11:49:23;;;;;;;13.63;6.03;;;17.00;99.90;;;;;;5012706;28;20420;-46
2022/10/10 11:52:17;;;;;;;61.90;42.28;;;17.00;99.90;;;;;;5012634;28;20485;-46
2022/10/10 11:55:03;;;;;;;15.90;12.13;;;17.00;99.90;;;;;;5012889;28;20109;-47
2022/10/10 11:57:44;;;;;;;;;;;17.10;99.90;;;;;;5013080;28;20065;-47
2022/10/10 12:00:14;;;;;;;8.90;6.18;;;17.20;99.90;;;;;;5012085;28;19909;-50
2022/10/10 12:02:41;;;;;;;11.07;6.00;;;17.10;99.90;;;;;;5012280;28;20026;-45
2022/10/10 12:05:21;;;;;;;15.35;6.15;;;17.10;99.90;;;;;;5012586;28;20034;-44
2022/10/10 12:07:55;;;;;;;11.10;5.82;;;17.10;99.90;;;;;;5011257;28;20489;-46
2022/10/10 12:10:30;;;;;;;14.90;5.88;;;17.20;99.90;;;;;;5012268;28;20088;-46
2022/10/10 12:13:04;;;;;;;7.78;5.88;;;17.10;99.90;;;;;;5012180;28;20045;-50
2022/10/10 12:15:34;;;;;;;6.45;5.65;;;17.20;99.90;;;;;;5012438;28;20041;-48
2022/10/10 12:18:00;;;;;;;12.50;5.65;;;17.20;99.90;;;;;;5012244;28;20022;-45
2022/10/10 12:20:26;;;;;;;9.95;5.30;;;17.30;99.90;;;;;;5011453;28;20018;-45
2022/10/10 12:23:21;;;;;;;10.55;5.53;;;17.40;99.90;;;;;;5011853;28;20474;-45
2022/10/10 12:25:47;;;;;;;17.77;5.93;;;17.40;99.90;;;;;;5012150;28;20018;-49
2022/10/10 12:28:12;;;;;;;6.20;5.10;;;17.40;99.90;;;;;;5012234;28;20033;-44
2022/10/10 12:31:03;;;;;;;8.95;5.50;;;17.40;99.90;;;;;;5012024;28;20037;-45
2022/10/10 12:33:32;;;;;;;9.73;6.25;;;17.40;99.90;;;;;;5012048;28;20044;-46
2022/10/10 12:36:18;;;;;;;11.25;5.68;;;17.50;99.90;;;;;;5012216;28;20030;-47
2022/10/10 12:39:04;;;;;;;10.00;5.30;;;17.60;99.90;;;;;;5011570;28;20030;-45
2022/10/10 12:41:49;;;;;;;13.27;5.55;;;17.60;99.90;;;;;;5012154;28;20100;-44
2022/10/10 12:44:24;;;;;;;14.27;5.35;;;17.60;99.90;;;;;;5011784;28;20093;-47
2022/10/10 12:47:15;;;;;;;11.32;6.07;;;17.60;99.90;;;;;;5011897;28;20145;-45
2022/10/10 12:50:01;;;;;;;15.93;6.22;;;17.70;99.90;;;;;;5011691;28;20022;-48
2022/10/10 12:52:49;;;;;;;10.57;5.75;;;17.60;99.90;;;;;;5012371;28;20079;-48
2022/10/10 12:55:22;;;;;;;9.15;5.40;;;17.60;99.90;;;;;;5011170;28;20124;-48
2022/10/10 12:57:51;;;;;;;11.95;4.97;;;17.70;99.90;;;;;;5011866;28;20457;-50
2022/10/10 13:00:17;;;;;;;10.02;5.40;;;17.70;99.90;;;;;;5010945;28;20014;-47
2022/10/10 13:02:46;;;;;;;9.90;5.35;;;17.80;99.90;;;;;;5011244;28;20026;-49
2022/10/10 13:05:17;;;;;;;10.18;5.18;;;17.90;99.90;;;;;;5011685;28;20469;-46
2022/10/10 13:07:44;;;;;;;11.38;6.03;;;17.90;99.90;;;;;;5011712;28;20402;-46
2022/10/10 13:10:23;;;;;;;16.48;4.75;;;18.00;99.90;;;;;;5011550;28;20062;-44